createdAt,value
2022-08-17T00:00:42.579Z,21.73
2022-08-17T00:03:39.159Z,18.27
2022-08-17T00:06:28.565Z,17.15
2022-08-17T00:09:18.335Z,19.38
2022-08-17T00:12:41.879Z,19.95
2022-08-17T00:15:13.779Z,19.52
2022-08-17T00:17:59.249Z,20.33
2022-08-17T00:20:45.261Z,18.33
2022-08-17T00:23:31.472Z,19.45
2022-08-17T00:26:45.238Z,19.30
2022-08-17T00:29:25.404Z,19.65
2022-08-17T00:33:14.209Z,21.05
2022-08-17T00:35:23.716Z,19.23
2022-08-17T00:38:12.127Z,16.13
2022-08-17T00:41:02.016Z,16.38
2022-08-17T00:43:54.776Z,17.08
2022-08-17T00:46:42.850Z,17.50
2022-08-17T00:49:31.805Z,20.17
2022-08-17T00:52:21.708Z,19.52
2022-08-17T00:55:09.189Z,17.33
2022-08-17T00:57:58.724Z,16.10
2022-08-17T01:00:46.179Z,15.68
2022-08-17T01:03:33.021Z,16.98
2022-08-17T01:06:21.626Z,19.27
2022-08-17T01:09:09.002Z,23.08
2022-08-17T01:11:55.668Z,20.80
2022-08-17T01:14:41.639Z,19.45
2022-08-17T01:17:28.588Z,21.67
2022-08-17T01:20:14.362Z,23.38
2022-08-17T01:23:01.489Z,18.98
2022-08-17T01:25:50.959Z,21.10
2022-08-17T01:28:54.136Z,24.42
2022-08-17T01:31:45.618Z,21.60
2022-08-17T01:37:34.581Z,17.15
2022-08-17T01:43:23.557Z,20.20
2022-08-17T01:46:09.678Z,24.30
2022-08-17T01:48:57.711Z,19.90
2022-08-17T01:51:44.037Z,22.67
2022-08-17T01:54:30.029Z,21.13
2022-08-17T01:57:16.717Z,21.25
2022-08-17T02:00:06.583Z,20.20
2022-08-17T02:02:57.218Z,27.02
2022-08-17T02:05:42.994Z,22.25
2022-08-17T02:08:37.229Z,20.55
2022-08-17T02:11:25.644Z,20.05
2022-08-17T02:14:12.114Z,21.30
2022-08-17T02:16:58.659Z,22.17
2022-08-17T02:19:44.749Z,19.98
2022-08-17T02:22:31.232Z,21.75
2022-08-17T02:25:20.659Z,22.98
2022-08-17T02:28:10.917Z,26.83
2022-08-17T02:31:01.256Z,27.77
2022-08-17T02:34:00.324Z,23.90
2022-08-17T02:36:49.453Z,19.55
2022-08-17T02:39:35.318Z,20.27
2022-08-17T02:42:27.737Z,19.42
2022-08-17T02:45:17.624Z,19.98
2022-08-17T02:48:04.645Z,27.55
2022-08-17T02:50:50.544Z,26.83
2022-08-17T02:53:37.124Z,21.25
2022-08-17T02:56:22.743Z,20.73
2022-08-17T02:59:09.205Z,23.60
2022-08-17T03:01:55.214Z,24.77
2022-08-17T03:04:41.505Z,20.45
2022-08-17T03:07:27.472Z,23.88
2022-08-17T03:10:14.862Z,21.63
2022-08-17T03:13:01.951Z,18.85
2022-08-17T03:15:48.609Z,20.15
2022-08-17T03:18:35.042Z,22.60
2022-08-17T03:21:21.877Z,24.10
2022-08-17T03:24:09.209Z,24.75
2022-08-17T03:26:56.069Z,27.85
2022-08-17T03:29:42.303Z,25.73
2022-08-17T03:32:29.180Z,27.95
2022-08-17T03:35:18.005Z,34.03
2022-08-17T03:38:05.250Z,27.23
2022-08-17T03:40:56.238Z,32.10
2022-08-17T03:43:45.040Z,34.22
2022-08-17T03:46:49.993Z,29.23
2022-08-17T03:50:05.890Z,31.42
2022-08-17T03:53:10.721Z,30.52
2022-08-17T03:56:24.978Z,29.73
2022-08-17T03:59:21.113Z,30.17
2022-08-17T04:02:11.992Z,30.88
2022-08-17T04:04:58.992Z,32.72
2022-08-17T04:07:46.100Z,27.42
2022-08-17T04:10:33.285Z,23.80
2022-08-17T04:13:25.565Z,25.77
2022-08-17T04:16:11.503Z,26.33
2022-08-17T04:18:57.872Z,28.23
2022-08-17T04:21:43.737Z,28.77
2022-08-17T04:24:30.162Z,30.88
2022-08-17T04:27:16.082Z,28.50
2022-08-17T04:30:06.971Z,27.30
2022-08-17T04:33:05.725Z,28.23
2022-08-17T04:35:55.826Z,28.15
2022-08-17T04:38:43.095Z,40.78
2022-08-17T04:41:49.126Z,38.60
2022-08-17T04:44:37.545Z,29.15
2022-08-17T04:47:24.948Z,29.90
2022-08-17T04:50:11.738Z,32.70
2022-08-17T04:52:58.367Z,30.20
2022-08-17T04:55:44.821Z,29.05
2022-08-17T04:58:31.536Z,31.33
2022-08-17T05:01:23.337Z,30.42
2022-08-17T05:04:21.350Z,29.90
2022-08-17T05:07:23.977Z,28.65
2022-08-17T05:10:11.674Z,29.77
2022-08-17T05:12:59.711Z,25.00
2022-08-17T05:15:50.070Z,28.25
2022-08-17T05:18:38.896Z,25.88
2022-08-17T05:21:26.981Z,22.93
2022-08-17T05:24:38.713Z,26.50
2022-08-17T05:27:19.788Z,29.65
2022-08-17T05:30:06.611Z,36.10
2022-08-17T05:33:08.939Z,28.20
2022-08-17T05:35:57.843Z,28.83
2022-08-17T05:38:44.749Z,25.35
2022-08-17T05:41:31.742Z,25.75
2022-08-17T05:44:18.671Z,24.75
2022-08-17T05:47:05.975Z,26.88
2022-08-17T05:49:56.884Z,27.45
2022-08-17T05:52:53.910Z,27.55
2022-08-17T05:56:01.762Z,25.25
2022-08-17T05:59:03.830Z,21.02
2022-08-17T06:02:15.981Z,23.10
2022-08-17T06:05:25.023Z,20.83
2022-08-17T06:08:42.631Z,21.83
2022-08-17T06:11:39.811Z,24.38
2022-08-17T06:14:42.029Z,19.75
2022-08-17T06:17:29.904Z,24.17
2022-08-17T06:20:17.630Z,22.27
2022-08-17T06:23:05.965Z,23.05
2022-08-17T06:26:03.895Z,20.38
2022-08-17T06:28:57.452Z,21.10
2022-08-17T06:31:44.635Z,18.52
2022-08-17T06:34:33.883Z,21.42
2022-08-17T06:37:25.333Z,20.83
2022-08-17T06:40:26.750Z,18.13
2022-08-17T06:43:48.045Z,17.90
2022-08-17T06:46:42.000Z,21.95
2022-08-17T06:49:55.529Z,18.20
2022-08-17T06:52:53.252Z,18.77
2022-08-17T06:55:56.620Z,21.88
2022-08-17T06:58:45.823Z,15.65
2022-08-17T07:01:39.049Z,17.85
2022-08-17T07:04:34.023Z,15.02
2022-08-17T07:07:43.960Z,17.70
2022-08-17T07:10:44.647Z,18.50
2022-08-17T07:14:18.161Z,15.82
2022-08-17T07:17:11.288Z,14.98
2022-08-17T07:20:08.958Z,17.88
2022-08-17T07:23:25.628Z,20.15
2022-08-17T07:26:15.956Z,13.82
2022-08-17T07:29:03.959Z,15.55
2022-08-17T07:31:53.883Z,14.43
2022-08-17T07:35:01.703Z,17.33
2022-08-17T07:37:55.712Z,14.65
2022-08-17T07:40:59.399Z,16.35
2022-08-17T07:43:52.548Z,15.90
2022-08-17T07:47:10.588Z,13.07
2022-08-17T07:50:37.600Z,12.65
2022-08-17T07:53:26.781Z,10.23
2022-08-17T07:56:34.818Z,12.00
2022-08-17T07:59:33.376Z,11.68
2022-08-17T08:02:35.469Z,12.35
2022-08-17T08:05:31.715Z,15.88
2022-08-17T08:08:45.866Z,12.68
2022-08-17T08:11:43.746Z,11.25
2022-08-17T08:14:41.088Z,16.98
2022-08-17T08:17:47.194Z,11.73
2022-08-17T08:20:53.373Z,11.30
2022-08-17T08:24:13.530Z,14.48
2022-08-17T08:27:27.642Z,10.85
2022-08-17T08:30:22.625Z,11.75
2022-08-17T08:33:10.705Z,11.88
2022-08-17T08:36:12.281Z,12.02
2022-08-17T08:39:42.715Z,10.77
2022-08-17T08:43:10.372Z,12.88
2022-08-17T08:50:01.876Z,10.30
2022-08-17T08:53:14.615Z,12.95
2022-08-17T08:56:14.978Z,10.15
2022-08-17T08:59:23.714Z,11.95
2022-08-17T09:02:39.024Z,14.43
2022-08-17T09:06:33.306Z,14.23
2022-08-17T09:09:21.009Z,13.73
2022-08-17T09:12:17.450Z,12.40
2022-08-17T09:15:14.313Z,11.25
2022-08-17T09:19:01.333Z,10.45
2022-08-17T09:21:54.563Z,11.43
2022-08-17T09:25:14.613Z,9.50
2022-08-17T09:28:19.499Z,10.65
2022-08-17T09:31:11.444Z,11.63
2022-08-17T09:34:11.444Z,10.30
2022-08-17T09:37:20.427Z,9.98
2022-08-17T09:40:29.109Z,13.07
2022-08-17T09:43:45.621Z,9.80
2022-08-17T09:46:45.758Z,12.98
2022-08-17T09:50:01.357Z,13.13
2022-08-17T09:52:51.415Z,11.48
2022-08-17T09:56:06.868Z,9.75
2022-08-17T09:59:25.457Z,11.07
2022-08-17T10:02:54.450Z,9.85
2022-08-17T10:05:57.547Z,11.13
2022-08-17T10:08:52.535Z,12.18
2022-08-17T10:12:13.310Z,11.52
2022-08-17T10:15:44.544Z,10.35
2022-08-17T10:19:09.458Z,10.25
2022-08-17T10:22:34.570Z,10.20
2022-08-17T10:26:00.532Z,12.02
2022-08-17T10:29:02.871Z,11.80
2022-08-17T10:32:03.548Z,11.77
2022-08-17T10:35:14.719Z,13.73
2022-08-17T10:38:25.965Z,10.85
2022-08-17T10:41:18.479Z,10.73
2022-08-17T10:44:38.120Z,10.32
2022-08-17T10:48:06.080Z,12.32
2022-08-17T10:50:58.130Z,9.88
2022-08-17T10:53:49.221Z,11.07
2022-08-17T10:56:43.406Z,9.23
2022-08-17T10:59:37.299Z,10.15
2022-08-17T11:02:31.495Z,10.07
2022-08-17T11:05:59.281Z,9.02
2022-08-17T11:09:02.028Z,9.57
2022-08-17T11:12:00.174Z,11.13
2022-08-17T11:15:12.073Z,13.25
2022-08-17T11:18:11.329Z,10.50
2022-08-17T11:21:12.635Z,10.48
2022-08-17T11:24:12.118Z,9.82
2022-08-17T11:27:17.165Z,14.57
2022-08-17T11:30:31.130Z,11.07
2022-08-17T11:33:29.687Z,11.45
2022-08-17T11:36:35.402Z,9.15
2022-08-17T11:39:28.236Z,9.27
2022-08-17T11:42:25.742Z,10.43
2022-08-17T11:45:37.081Z,12.32
2022-08-17T11:49:01.034Z,9.25
2022-08-17T11:52:01.159Z,9.68
2022-08-17T11:54:48.976Z,8.88
2022-08-17T11:57:40.630Z,10.57
2022-08-17T12:00:47.319Z,11.23
2022-08-17T12:03:34.126Z,7.13
2022-08-17T12:06:31.065Z,8.75
2022-08-17T12:09:25.011Z,8.13
2022-08-17T12:12:15.038Z,7.50
2022-08-17T12:15:10.524Z,7.88
2022-08-17T12:17:58.418Z,6.00
2022-08-17T12:20:45.601Z,6.88
2022-08-17T12:23:47.871Z,7.07
2022-08-17T12:26:36.974Z,7.30
2022-08-17T12:29:35.824Z,7.15
2022-08-17T12:32:30.927Z,7.20
2022-08-17T12:35:49.850Z,7.38
2022-08-17T12:38:41.903Z,6.30
2022-08-17T12:41:36.553Z,6.72
2022-08-17T12:44:30.066Z,6.65
2022-08-17T12:47:22.747Z,6.32
2022-08-17T12:50:28.711Z,6.22
2022-08-17T12:53:25.985Z,6.40
2022-08-17T12:56:13.891Z,6.63
2022-08-17T12:59:02.352Z,6.75
2022-08-17T13:01:50.530Z,7.15
2022-08-17T13:04:41.056Z,9.35
2022-08-17T13:07:30.906Z,7.70
2022-08-17T13:10:32.442Z,6.75
2022-08-17T13:13:26.767Z,6.70
2022-08-17T13:16:14.503Z,7.40
2022-08-17T13:19:15.061Z,5.70
2022-08-17T13:22:02.135Z,7.03
2022-08-17T13:25:04.099Z,5.38
2022-08-17T13:27:58.361Z,6.82
2022-08-17T13:30:45.903Z,6.18
2022-08-17T13:33:43.383Z,8.35
2022-08-17T13:36:33.985Z,7.33
2022-08-17T13:39:25.504Z,5.65
2022-08-17T13:42:52.731Z,6.13
2022-08-17T13:45:50.765Z,7.38
2022-08-17T13:48:37.917Z,6.28
2022-08-17T13:51:29.053Z,6.25
2022-08-17T13:54:34.935Z,5.95
2022-08-17T13:57:28.415Z,7.25
2022-08-17T14:00:30.941Z,7.05
2022-08-17T14:03:20.101Z,8.00
2022-08-17T14:06:07.800Z,8.43
2022-08-17T14:08:57.127Z,7.60
2022-08-17T14:11:47.796Z,7.07
2022-08-17T14:14:36.616Z,7.60
2022-08-17T14:17:24.356Z,11.23
2022-08-17T14:20:12.965Z,8.35
2022-08-17T14:22:59.811Z,7.73
2022-08-17T14:25:47.946Z,6.65
2022-08-17T14:28:36.392Z,7.10
2022-08-17T14:31:22.987Z,8.70
2022-08-17T14:34:10.663Z,8.23
2022-08-17T14:36:58.977Z,7.47
2022-08-17T14:39:54.886Z,9.73
2022-08-17T14:42:51.120Z,7.70
2022-08-17T14:45:37.842Z,8.00
2022-08-17T14:48:25.877Z,6.68
2022-08-17T14:51:18.806Z,8.73
2022-08-17T14:54:06.798Z,6.65
2022-08-17T14:57:15.567Z,6.25
2022-08-17T15:00:04.799Z,7.57
2022-08-17T15:02:54.723Z,7.83
2022-08-17T15:05:41.617Z,9.95
2022-08-17T15:08:28.811Z,8.73
2022-08-17T15:11:15.882Z,8.10
2022-08-17T15:14:03.824Z,9.60
2022-08-17T15:16:57.053Z,7.97
2022-08-17T15:20:06.075Z,6.63
2022-08-17T15:25:51.117Z,7.07
2022-08-17T15:28:43.051Z,6.70
2022-08-17T15:31:47.694Z,8.02
2022-08-17T15:34:40.532Z,9.70
2022-08-17T15:37:35.001Z,8.13
2022-08-17T15:40:27.594Z,9.63
2022-08-17T15:43:51.508Z,8.82
2022-08-17T15:47:06.299Z,8.13
2022-08-17T15:50:09.692Z,8.02
2022-08-17T15:53:01.264Z,9.05
2022-08-17T15:55:52.338Z,7.10
2022-08-17T15:58:48.760Z,10.02
2022-08-17T16:03:01.178Z,11.65
2022-08-17T16:04:57.372Z,6.93
2022-08-17T16:07:50.756Z,10.18
2022-08-17T16:10:44.695Z,8.27
2022-08-17T16:13:36.552Z,8.68
2022-08-17T16:16:27.457Z,8.40
2022-08-17T16:19:18.403Z,7.03
2022-08-17T16:22:09.990Z,11.27
2022-08-17T16:25:08.490Z,13.53
2022-08-17T16:28:01.264Z,9.38
2022-08-17T16:30:47.682Z,7.22
2022-08-17T16:33:37.310Z,8.90
2022-08-17T16:36:55.110Z,9.85
2022-08-17T16:39:57.638Z,10.52
2022-08-17T16:42:49.564Z,9.98
2022-08-17T16:45:43.172Z,8.57
2022-08-17T16:48:30.452Z,9.70
2022-08-17T16:51:24.583Z,11.35
2022-08-17T16:54:15.928Z,6.72
2022-08-17T16:57:05.656Z,15.52
2022-08-17T16:59:53.634Z,10.82
2022-08-17T17:02:48.069Z,10.00
2022-08-17T17:05:46.170Z,8.40
2022-08-17T17:09:05.669Z,9.43
2022-08-17T17:12:03.870Z,12.95
2022-08-17T17:14:59.294Z,9.43
2022-08-17T17:17:49.826Z,8.48
2022-08-17T17:21:13.927Z,9.10
2022-08-17T17:24:07.481Z,8.02
2022-08-17T17:27:13.409Z,7.63
2022-08-17T17:30:41.662Z,7.40
2022-08-17T17:36:51.578Z,10.18
2022-08-17T17:39:50.273Z,7.38
2022-08-17T17:42:40.458Z,9.20
2022-08-17T17:45:40.590Z,7.13
2022-08-17T17:48:30.239Z,9.65
2022-08-17T17:51:35.169Z,9.85
2022-08-17T17:55:04.439Z,8.45
2022-08-17T17:58:22.064Z,8.70
2022-08-17T18:01:26.120Z,8.23
2022-08-17T18:04:21.454Z,9.60
2022-08-17T18:07:27.256Z,11.90
2022-08-17T18:10:30.317Z,11.40
2022-08-17T18:13:36.409Z,11.82
2022-08-17T18:16:23.210Z,9.57
2022-08-17T18:19:21.229Z,14.35
2022-08-17T18:22:23.306Z,9.02
2022-08-17T18:25:43.991Z,10.82
2022-08-17T18:28:40.315Z,9.75
2022-08-17T18:31:27.071Z,10.88
2022-08-17T18:37:40.257Z,12.43
2022-08-17T18:40:36.192Z,11.75
2022-08-17T18:43:44.210Z,12.30
2022-08-17T18:46:43.844Z,19.73
2022-08-17T18:49:30.365Z,18.67
2022-08-17T18:52:33.751Z,12.80
2022-08-17T18:55:30.312Z,17.55
2022-08-17T18:58:20.501Z,43.03
2022-08-17T19:03:52.801Z,42.63
2022-08-17T19:06:39.795Z,21.48
2022-08-17T19:09:47.517Z,12.88
2022-08-17T19:12:47.614Z,36.08
2022-08-17T19:15:38.691Z,27.55
2022-08-17T19:18:30.559Z,22.85
2022-08-17T19:21:26.317Z,37.42
2022-08-17T19:24:20.288Z,29.40
2022-08-17T19:27:34.927Z,23.70
2022-08-17T19:30:53.093Z,23.63
2022-08-17T19:33:52.281Z,20.02
2022-08-17T19:36:57.562Z,18.67
2022-08-17T19:40:08.733Z,34.80
2022-08-17T19:46:08.745Z,33.90
2022-08-17T19:49:22.414Z,35.53
2022-08-17T19:52:37.725Z,29.20
2022-08-17T19:55:44.180Z,25.15
2022-08-17T19:58:52.058Z,31.05
2022-08-17T20:01:45.484Z,32.63
2022-08-17T20:04:42.400Z,38.83
2022-08-17T20:07:46.556Z,31.77
2022-08-17T20:10:47.369Z,25.10
2022-08-17T20:14:00.254Z,31.70
2022-08-17T20:16:47.487Z,34.17
2022-08-17T20:19:52.363Z,26.85
2022-08-17T20:22:59.589Z,21.23
2022-08-17T20:26:10.319Z,17.70
2022-08-17T20:29:06.134Z,15.75
2022-08-17T20:31:55.406Z,19.80
2022-08-17T20:34:45.529Z,16.50
2022-08-17T20:37:34.324Z,21.73
2022-08-17T20:40:26.103Z,18.77
2022-08-17T20:43:34.258Z,23.05
2022-08-17T20:46:41.858Z,18.00
2022-08-17T20:49:57.818Z,18.63
2022-08-17T20:52:54.191Z,17.75
2022-08-17T20:55:52.294Z,17.40
2022-08-17T20:58:46.600Z,21.38
2022-08-17T21:01:39.886Z,23.85
2022-08-17T21:05:07.317Z,23.55
2022-08-17T21:08:00.567Z,18.92
2022-08-17T21:10:47.472Z,22.02
2022-08-17T21:13:36.651Z,22.95
2022-08-17T21:16:27.110Z,22.70
2022-08-17T21:22:21.272Z,68.20
2022-08-17T21:25:26.391Z,44.42
2022-08-17T21:28:33.979Z,27.52
2022-08-17T21:31:40.273Z,24.08
2022-08-17T21:34:29.118Z,25.60
2022-08-17T21:37:33.374Z,25.45
2022-08-17T21:40:27.456Z,23.67
2022-08-17T21:43:27.109Z,23.60
2022-08-17T21:46:29.505Z,20.67
2022-08-17T21:49:19.383Z,22.92
2022-08-17T21:52:07.762Z,23.98
2022-08-17T21:54:57.744Z,24.33
2022-08-17T21:57:53.176Z,23.65
2022-08-17T22:01:22.811Z,26.60
2022-08-17T22:04:15.251Z,30.17
2022-08-17T22:07:09.950Z,23.88
2022-08-17T22:09:56.213Z,26.48
2022-08-17T22:13:05.265Z,23.08
2022-08-17T22:16:29.067Z,23.20
2022-08-17T22:19:15.930Z,23.05
2022-08-17T22:22:05.064Z,20.00
2022-08-17T22:24:56.845Z,31.20
2022-08-17T22:28:11.016Z,28.35
2022-08-17T22:31:02.416Z,23.98
2022-08-17T22:34:09.968Z,28.48
2022-08-17T22:37:27.511Z,24.83
2022-08-17T22:40:26.157Z,28.50
2022-08-17T22:43:13.074Z,27.25
2022-08-17T22:46:00.265Z,22.60
2022-08-17T22:48:50.271Z,29.98
2022-08-17T22:51:43.061Z,26.58
2022-08-17T22:54:48.119Z,27.08
2022-08-17T22:58:07.944Z,29.25
2022-08-17T23:00:54.060Z,44.95
2022-08-17T23:03:54.170Z,26.63
2022-08-17T23:06:44.027Z,28.77
2022-08-17T23:09:30.939Z,30.00
2022-08-17T23:12:23.920Z,28.60
2022-08-17T23:15:14.846Z,34.17
2022-08-17T23:18:04.928Z,29.48
2022-08-17T23:20:51.922Z,34.38
2022-08-17T23:23:39.314Z,35.75
2022-08-17T23:26:27.868Z,37.83
2022-08-17T23:29:14.878Z,26.65
2022-08-17T23:32:04.899Z,28.17
2022-08-17T23:34:51.143Z,30.00
2022-08-17T23:37:38.219Z,32.63
2022-08-17T23:40:24.881Z,24.35
2022-08-17T23:43:23.881Z,35.28
2022-08-17T23:46:11.886Z,34.85
2022-08-17T23:48:59.790Z,33.95
2022-08-17T23:51:46.835Z,35.70
2022-08-17T23:54:38.955Z,31.65
2022-08-17T23:57:33.842Z,26.95
